createdAt,value
2017-08-04T00:00:01.300Z,0
2017-08-04T00:01:01.282Z,0
2017-08-04T00:02:01.272Z,0
2017-08-04T00:03:01.248Z,0
2017-08-04T00:04:01.229Z,0
2017-08-04T00:05:00.907Z,0
2017-08-04T00:06:01.193Z,0
2017-08-04T00:07:01.184Z,0
2017-08-04T00:08:01.147Z,0
2017-08-04T00:09:01.129Z,0
2017-08-04T00:10:01.102Z,0
2017-08-04T00:11:01.088Z,0
2017-08-04T00:12:00.769Z,0
2017-08-04T00:13:01.052Z,0
2017-08-04T00:14:00.732Z,0
2017-08-04T00:15:00.712Z,0
2017-08-04T00:16:00.691Z,0
2017-08-04T00:17:00.671Z,0
2017-08-04T00:18:00.952Z,0
2017-08-04T00:19:00.933Z,0
2017-08-04T00:20:00.910Z,0
2017-08-04T00:21:00.894Z,0
2017-08-04T00:22:00.571Z,0
2017-08-04T00:23:00.559Z,0
2017-08-04T00:24:00.831Z,0
2017-08-04T00:25:00.520Z,0
2017-08-04T00:26:00.802Z,0
2017-08-04T00:27:00.780Z,0
2017-08-04T00:28:00.756Z,0
2017-08-04T00:29:00.745Z,0
2017-08-04T00:30:00.418Z,0
2017-08-04T00:31:00.696Z,0
2017-08-04T00:32:00.675Z,0
2017-08-04T00:33:00.357Z,0
2017-08-04T00:34:00.636Z,0
2017-08-04T00:35:00.623Z,0
2017-08-04T00:36:00.607Z,0
2017-08-04T00:37:00.281Z,0
2017-08-04T00:38:00.272Z,0
2017-08-04T00:39:00.550Z,0
2017-08-04T00:40:00.231Z,0
2017-08-04T00:41:00.507Z,0
2017-08-04T00:42:00.195Z,0
2017-08-04T00:43:00.464Z,0
2017-08-04T00:44:00.151Z,0
2017-08-04T00:45:00.448Z,0
2017-08-04T00:46:00.107Z,0
2017-08-04T00:47:00.083Z,0
2017-08-04T00:48:00.359Z,0
2017-08-04T00:49:00.052Z,0
2017-08-04T00:50:00.027Z,0
2017-08-04T00:51:00.306Z,0
2017-08-04T00:52:00.301Z,0
2017-08-04T00:53:00.266Z,0
2017-08-04T00:54:00.250Z,0
2017-08-04T00:55:00.229Z,0
2017-08-04T00:56:00.219Z,0
2017-08-04T00:56:59.891Z,0
2017-08-04T00:57:59.874Z,0
2017-08-04T00:58:59.854Z,0
2017-08-04T01:00:00.131Z,0
2017-08-04T01:01:00.109Z,0
2017-08-04T01:02:00.091Z,0
2017-08-04T01:03:00.069Z,0
2017-08-04T01:04:00.054Z,0
2017-08-04T01:05:00.041Z,0
2017-08-04T01:05:59.715Z,0
2017-08-04T01:07:00.000Z,0
2017-08-04T01:07:59.970Z,0
2017-08-04T01:08:59.966Z,0
2017-08-04T01:09:59.932Z,0
2017-08-04T01:10:59.621Z,0
2017-08-04T01:11:59.894Z,0
2017-08-04T01:12:59.874Z,0
2017-08-04T01:13:59.849Z,0
2017-08-04T01:14:59.833Z,0
2017-08-04T01:15:59.808Z,0
2017-08-04T01:16:59.793Z,0
2017-08-04T01:17:59.772Z,0
2017-08-04T01:18:59.752Z,0
2017-08-04T01:19:59.734Z,0
2017-08-04T01:20:59.714Z,0
2017-08-04T01:21:59.699Z,0
2017-08-04T01:22:59.378Z,0
2017-08-04T01:23:59.652Z,0
2017-08-04T01:24:59.636Z,0
2017-08-04T01:25:59.615Z,0
2017-08-04T01:26:59.592Z,0
2017-08-04T01:27:59.575Z,0
2017-08-04T01:28:59.259Z,0
2017-08-04T01:29:59.541Z,0
2017-08-04T01:30:59.218Z,0
2017-08-04T01:31:59.196Z,0
2017-08-04T01:32:59.478Z,0
2017-08-04T01:33:59.170Z,0
2017-08-04T01:34:59.142Z,0
2017-08-04T01:35:59.117Z,0
2017-08-04T01:36:59.100Z,0
2017-08-04T01:37:59.088Z,0
2017-08-04T01:38:59.058Z,0
2017-08-04T01:39:59.349Z,0
2017-08-04T01:40:59.319Z,0
2017-08-04T01:41:59.292Z,0
2017-08-04T01:42:59.273Z,0
2017-08-04T01:43:59.259Z,0
2017-08-04T01:44:59.236Z,0
2017-08-04T01:45:59.212Z,0
2017-08-04T01:46:59.199Z,0
2017-08-04T01:47:59.169Z,0
2017-08-04T01:48:58.867Z,0
2017-08-04T01:49:58.837Z,0
2017-08-04T01:50:59.123Z,0
2017-08-04T01:51:59.097Z,0
2017-08-04T01:52:59.080Z,0
2017-08-04T01:53:59.051Z,0
2017-08-04T01:54:59.043Z,0
2017-08-04T01:55:59.011Z,0
2017-08-04T01:56:58.993Z,0
2017-08-04T01:57:58.973Z,0
2017-08-04T01:58:58.656Z,0
2017-08-04T01:59:58.930Z,0
2017-08-04T02:00:58.918Z,0
2017-08-04T02:01:58.892Z,0
2017-08-04T02:02:58.875Z,0
2017-08-04T02:03:58.854Z,0
2017-08-04T02:04:58.531Z,0
2017-08-04T02:05:58.810Z,0
2017-08-04T02:06:58.797Z,0
2017-08-04T02:07:58.770Z,0
2017-08-04T02:08:58.452Z,0
2017-08-04T02:09:58.731Z,0
2017-08-04T02:10:58.711Z,0
2017-08-04T02:11:58.689Z,0
2017-08-04T02:12:58.670Z,0
2017-08-04T02:13:58.647Z,0
2017-08-04T02:14:58.786Z,0
2017-08-04T02:15:58.607Z,0
2017-08-04T02:16:58.633Z,0
2017-08-04T02:17:58.577Z,0
2017-08-04T02:18:58.547Z,0
2017-08-04T02:19:58.525Z,0
2017-08-04T02:20:58.506Z,0
2017-08-04T02:21:58.193Z,0
2017-08-04T02:22:58.468Z,0
2017-08-04T02:23:58.449Z,0
2017-08-04T02:24:58.427Z,0
2017-08-04T02:25:58.408Z,0
2017-08-04T02:26:58.384Z,0
2017-08-04T02:27:58.369Z,0
2017-08-04T02:28:58.350Z,0
2017-08-04T02:29:58.032Z,0
2017-08-04T02:30:58.307Z,0
2017-08-04T02:31:58.295Z,0
2017-08-04T02:32:58.270Z,0
2017-08-04T02:33:58.259Z,0
2017-08-04T02:34:58.230Z,0
2017-08-04T02:35:58.215Z,0
2017-08-04T02:36:58.190Z,0
2017-08-04T02:37:58.192Z,0
2017-08-04T02:38:58.144Z,0
2017-08-04T02:39:58.132Z,0
2017-08-04T02:40:58.111Z,0
2017-08-04T02:41:57.793Z,0
2017-08-04T02:42:58.075Z,0
2017-08-04T02:43:58.052Z,0
2017-08-04T02:44:58.026Z,0
2017-08-04T02:45:58.037Z,0
2017-08-04T02:46:57.984Z,0
2017-08-04T02:47:57.970Z,0
2017-08-04T02:48:57.961Z,0
2017-08-04T02:49:57.931Z,0
2017-08-04T02:50:57.913Z,0
2017-08-04T02:51:57.914Z,0
2017-08-04T02:52:57.877Z,0
2017-08-04T02:53:57.847Z,0
2017-08-04T02:54:57.535Z,0
2017-08-04T02:55:57.819Z,0
2017-08-04T02:56:57.493Z,0
2017-08-04T02:57:57.776Z,0
2017-08-04T02:58:57.451Z,0
2017-08-04T02:59:57.730Z,0
2017-08-04T03:00:57.715Z,0
2017-08-04T03:01:57.687Z,0
2017-08-04T03:02:57.372Z,0
2017-08-04T03:03:57.346Z,0
2017-08-04T03:04:57.629Z,0
2017-08-04T03:05:57.606Z,0
2017-08-04T03:06:57.593Z,0
2017-08-04T03:07:57.566Z,0
2017-08-04T03:08:57.556Z,0
2017-08-04T03:09:57.235Z,0
2017-08-04T03:10:57.017Z,0
2017-08-04T03:11:57.191Z,0
2017-08-04T03:12:57.472Z,0
2017-08-04T03:13:57.151Z,0
2017-08-04T03:14:57.439Z,0
2017-08-04T03:15:57.406Z,0
2017-08-04T03:16:57.091Z,0
2017-08-04T03:17:57.368Z,0
2017-08-04T03:18:57.049Z,0
2017-08-04T03:19:57.336Z,0
2017-08-04T03:20:57.309Z,4
2017-08-04T03:21:57.287Z,4
2017-08-04T03:22:57.271Z,0
2017-08-04T03:23:57.256Z,0
2017-08-04T03:24:57.230Z,4
2017-08-04T03:25:57.462Z,4
2017-08-04T03:26:57.193Z,8
2017-08-04T03:27:57.173Z,4
2017-08-04T03:28:57.156Z,8
2017-08-04T03:29:57.140Z,8
2017-08-04T03:30:57.120Z,8
2017-08-04T03:31:57.086Z,12
2017-08-04T03:32:57.073Z,12
2017-08-04T03:33:57.057Z,16
2017-08-04T03:34:57.031Z,16
2017-08-04T03:35:56.716Z,12
2017-08-04T03:36:56.993Z,20
2017-08-04T03:37:56.974Z,20
2017-08-04T03:38:56.653Z,24
2017-08-04T03:39:56.933Z,28
2017-08-04T03:40:56.918Z,32
2017-08-04T03:41:56.895Z,36
2017-08-04T03:42:56.874Z,44
2017-08-04T03:43:56.849Z,52
2017-08-04T03:44:56.832Z,56
2017-08-04T03:45:56.814Z,68
2017-08-04T03:46:56.793Z,72
2017-08-04T03:47:56.777Z,72
2017-08-04T03:48:56.757Z,76
2017-08-04T03:49:56.732Z,84
2017-08-04T03:50:56.720Z,88
2017-08-04T03:51:56.402Z,96
2017-08-04T03:52:56.679Z,108
2017-08-04T03:53:56.369Z,112
2017-08-04T03:54:56.638Z,120
2017-08-04T03:55:56.617Z,132
2017-08-04T03:56:56.610Z,140
2017-08-04T03:57:56.574Z,140
2017-08-04T03:58:56.559Z,128
2017-08-04T03:59:56.543Z,132
2017-08-04T04:00:56.223Z,160
2017-08-04T04:01:56.550Z,188
2017-08-04T04:02:56.476Z,204
2017-08-04T04:03:56.455Z,216
2017-08-04T04:04:56.442Z,240
2017-08-04T04:05:56.421Z,268
2017-08-04T04:06:56.400Z,304
2017-08-04T04:07:56.429Z,332
2017-08-04T04:08:56.059Z,352
2017-08-04T04:09:56.341Z,336
2017-08-04T04:10:56.018Z,284
2017-08-04T04:11:56.300Z,264
2017-08-04T04:12:56.280Z,292
2017-08-04T04:13:55.964Z,316
2017-08-04T04:14:55.953Z,300
2017-08-04T04:15:56.221Z,316
2017-08-04T04:16:56.208Z,408
2017-08-04T04:17:56.182Z,488
2017-08-04T04:18:56.164Z,560
2017-08-04T04:19:56.142Z,648
2017-08-04T04:20:56.121Z,724
2017-08-04T04:21:56.112Z,740
2017-08-04T04:22:56.093Z,712
2017-08-04T04:23:56.060Z,720
2017-08-04T04:24:56.045Z,736
2017-08-04T04:25:56.045Z,812
2017-08-04T04:26:56.004Z,920
2017-08-04T04:27:55.980Z,976
2017-08-04T04:28:55.958Z,1040
2017-08-04T04:29:55.947Z,1084
2017-08-04T04:30:55.633Z,1060
2017-08-04T04:31:55.316Z,1060
2017-08-04T04:32:55.887Z,1004
2017-08-04T04:33:55.867Z,932
2017-08-04T04:34:55.546Z,1024
2017-08-04T04:35:55.833Z,1104
2017-08-04T04:36:55.806Z,1136
2017-08-04T04:37:55.790Z,1248
2017-08-04T04:38:55.767Z,1420
2017-08-04T04:39:55.155Z,1480
2017-08-04T04:40:55.729Z,1520
2017-08-04T04:41:55.719Z,1544
2017-08-04T04:42:55.690Z,1596
2017-08-04T04:43:55.376Z,1644
2017-08-04T04:44:55.651Z,1648
2017-08-04T04:45:55.331Z,1600
2017-08-04T04:46:55.612Z,1612
2017-08-04T04:47:55.291Z,1720
2017-08-04T04:48:55.273Z,1788
2017-08-04T04:49:55.256Z,1856
2017-08-04T04:50:55.534Z,2012
2017-08-04T04:51:55.520Z,2184
2017-08-04T04:52:55.505Z,2292
2017-08-04T04:53:55.471Z,2268
2017-08-04T04:54:55.452Z,1804
2017-08-04T04:55:55.439Z,1644
2017-08-04T04:56:55.117Z,1672
2017-08-04T04:57:55.395Z,1676
2017-08-04T04:58:55.382Z,2048
2017-08-04T04:59:55.059Z,2520
2017-08-04T05:00:55.041Z,2736
2017-08-04T05:01:55.314Z,2768
2017-08-04T05:02:55.298Z,2540
2017-08-04T05:03:55.280Z,2088
2017-08-04T05:04:55.260Z,2056
2017-08-04T05:05:55.258Z,2332
2017-08-04T05:06:55.225Z,2784
2017-08-04T05:07:55.200Z,3184
2017-08-04T05:08:55.181Z,3548
2017-08-04T05:09:54.869Z,3748
2017-08-04T05:10:55.141Z,3904
2017-08-04T05:11:55.119Z,3208
2017-08-04T05:12:55.113Z,2628
2017-08-04T05:13:55.089Z,2604
2017-08-04T05:14:55.066Z,2952
2017-08-04T05:15:54.454Z,2848
2017-08-04T05:16:54.736Z,2604
2017-08-04T05:17:55.013Z,2704
2017-08-04T05:18:54.989Z,2748
2017-08-04T05:19:54.972Z,2624
2017-08-04T05:20:54.952Z,2556
2017-08-04T05:21:54.935Z,2524
2017-08-04T05:22:54.916Z,2576
2017-08-04T05:23:54.942Z,2724
2017-08-04T05:24:54.879Z,3128
2017-08-04T05:25:54.858Z,3588
2017-08-04T05:26:54.548Z,3944
2017-08-04T05:27:54.818Z,4460
2017-08-04T05:28:54.796Z,4748
2017-08-04T05:29:55.202Z,4792
2017-08-04T05:30:54.349Z,4744
2017-08-04T05:31:55.256Z,4460
2017-08-04T05:32:56.116Z,3876
2017-08-04T05:33:55.858Z,3256
2017-08-04T05:34:55.177Z,2944
2017-08-04T05:35:54.769Z,3472
2017-08-04T05:36:54.598Z,4100
2017-08-04T05:37:54.386Z,4016
2017-08-04T05:38:54.315Z,3428
2017-08-04T05:39:54.583Z,3168
2017-08-04T05:40:54.271Z,3216
2017-08-04T05:41:54.546Z,3392
2017-08-04T05:42:54.540Z,3840
2017-08-04T05:43:54.520Z,4268
2017-08-04T05:44:54.609Z,4280
2017-08-04T05:45:54.201Z,4148
2017-08-04T05:46:54.454Z,4348
2017-08-04T05:47:54.443Z,4812
2017-08-04T05:48:54.120Z,5728
2017-08-04T05:49:54.100Z,7612
2017-08-04T05:50:54.375Z,9700
2017-08-04T05:51:54.360Z,10508
2017-08-04T05:52:54.053Z,10544
2017-08-04T05:53:54.031Z,10324
2017-08-04T05:54:54.305Z,10208
2017-08-04T05:55:54.293Z,9352
2017-08-04T05:56:54.268Z,9160
2017-08-04T05:57:54.251Z,9476
2017-08-04T05:58:53.929Z,10076
2017-08-04T05:59:54.207Z,10788
2017-08-04T06:00:54.193Z,10856
2017-08-04T06:01:55.036Z,11804
2017-08-04T06:02:54.148Z,12852
2017-08-04T06:03:54.142Z,12660
2017-08-04T06:04:54.120Z,11832
2017-08-04T06:05:54.102Z,11252
2017-08-04T06:06:54.078Z,10684
2017-08-04T06:07:54.068Z,11104
2017-08-04T06:08:53.757Z,9748
2017-08-04T06:09:53.754Z,9340
2017-08-04T06:10:53.710Z,11052
2017-08-04T06:11:53.702Z,12140
2017-08-04T06:12:54.025Z,13608
2017-08-04T06:13:53.965Z,14072
2017-08-04T06:14:53.941Z,12860
2017-08-04T06:15:53.919Z,13260
2017-08-04T06:16:53.902Z,12048
2017-08-04T06:17:53.587Z,10560
2017-08-04T06:18:53.872Z,10024
2017-08-04T06:19:53.848Z,10764
2017-08-04T06:20:53.836Z,9940
2017-08-04T06:21:53.812Z,11252
2017-08-04T06:22:53.808Z,12692
2017-08-04T06:23:53.777Z,12624
2017-08-04T06:24:53.850Z,12276
2017-08-04T06:25:53.772Z,12120
2017-08-04T06:26:53.757Z,13684
2017-08-04T06:27:53.709Z,15768
2017-08-04T06:28:53.199Z,15264
2017-08-04T06:29:53.677Z,14080
2017-08-04T06:30:53.655Z,13380
2017-08-04T06:31:53.646Z,12196
2017-08-04T06:32:53.632Z,11136
2017-08-04T06:33:53.318Z,11356
2017-08-04T06:34:53.593Z,12512
2017-08-04T06:35:53.275Z,13304
2017-08-04T06:36:53.605Z,13732
2017-08-04T06:37:53.252Z,14052
2017-08-04T06:38:53.527Z,14464
2017-08-04T06:39:53.755Z,14228
2017-08-04T06:40:53.317Z,14376
2017-08-04T06:41:53.097Z,15080
2017-08-04T06:42:53.235Z,14864
2017-08-04T06:43:53.440Z,16072
2017-08-04T06:44:53.434Z,16152
2017-08-04T06:45:53.113Z,15192
2017-08-04T06:46:53.563Z,16396
2017-08-04T06:47:53.382Z,16744
2017-08-04T06:48:53.357Z,16020
2017-08-04T06:49:53.338Z,17208
2017-08-04T06:50:53.323Z,16676
2017-08-04T06:51:53.315Z,18432
2017-08-04T06:52:52.992Z,19456
2017-08-04T06:53:53.286Z,18240
2017-08-04T06:54:53.254Z,18528
2017-08-04T06:55:53.241Z,19104
2017-08-04T06:56:53.219Z,20992
2017-08-04T06:57:53.210Z,23968
2017-08-04T06:58:53.188Z,25280
2017-08-04T06:59:53.175Z,19648
2017-08-04T07:00:52.566Z,20768
2017-08-04T07:01:52.853Z,17728
2017-08-04T07:02:52.836Z,16908
2017-08-04T07:03:53.113Z,17444
2017-08-04T07:04:52.800Z,16912
2017-08-04T07:05:52.779Z,18144
2017-08-04T07:06:52.471Z,20704
2017-08-04T07:07:53.046Z,37152
2017-08-04T07:08:52.740Z,23680
2017-08-04T07:09:52.719Z,23776
2017-08-04T07:10:52.751Z,48864
2017-08-04T07:11:53.071Z,22592
2017-08-04T07:12:52.978Z,22560
2017-08-04T07:13:52.668Z,24512
2017-08-04T07:14:52.645Z,24576
2017-08-04T07:15:52.925Z,25472
2017-08-04T07:16:52.614Z,27680
2017-08-04T07:17:52.595Z,25408
2017-08-04T07:18:52.884Z,24672
2017-08-04T07:19:52.863Z,29056
2017-08-04T07:20:53.055Z,42912
2017-08-04T07:21:53.463Z,29216
2017-08-04T07:22:53.197Z,24672
2017-08-04T07:23:53.065Z,19360
2017-08-04T07:24:52.787Z,20832
2017-08-04T07:25:52.773Z,20832
2017-08-04T07:26:52.767Z,18944
2017-08-04T07:27:52.739Z,15716
2017-08-04T07:28:52.723Z,15436
2017-08-04T07:29:52.712Z,17344
2017-08-04T07:30:53.201Z,16848
2017-08-04T07:31:52.679Z,16320
2017-08-04T07:32:52.671Z,19040
2017-08-04T07:33:52.653Z,19776
2017-08-04T07:34:52.343Z,18336
2017-08-04T07:35:52.628Z,16996
2017-08-04T07:36:52.608Z,16432
2017-08-04T07:37:52.296Z,16404
2017-08-04T07:38:52.582Z,16300
2017-08-04T07:39:52.560Z,20352
2017-08-04T07:40:52.546Z,22208
2017-08-04T07:41:52.534Z,22496
2017-08-04T07:42:53.048Z,22496
2017-08-04T07:43:53.066Z,22176
2017-08-04T07:44:52.488Z,22880
2017-08-04T07:45:52.477Z,23552
2017-08-04T07:46:52.458Z,23488
2017-08-04T07:47:51.848Z,22144
2017-08-04T07:48:52.156Z,23552
2017-08-04T07:49:52.418Z,25184
2017-08-04T07:50:53.898Z,25376
2017-08-04T07:51:52.381Z,26624
2017-08-04T07:52:52.365Z,27008
2017-08-04T07:53:52.687Z,26080
2017-08-04T07:54:52.337Z,24928
2017-08-04T07:55:52.330Z,24352
2017-08-04T07:56:52.313Z,24640
2017-08-04T07:57:52.301Z,26016
2017-08-04T07:58:52.278Z,26176
2017-08-04T07:59:51.974Z,25312
2017-08-04T08:00:52.406Z,26144
2017-08-04T08:01:52.376Z,27232
2017-08-04T08:02:52.230Z,28160
2017-08-04T08:03:52.420Z,29088
2017-08-04T08:04:52.266Z,29792
2017-08-04T08:05:52.366Z,28704
2017-08-04T08:06:51.998Z,28608
2017-08-04T08:07:52.266Z,29024
2017-08-04T08:08:51.640Z,28096
2017-08-04T08:09:52.132Z,26208
2017-08-04T08:10:52.116Z,25632
2017-08-04T08:11:52.098Z,23264
2017-08-04T08:12:52.399Z,22432
2017-08-04T08:13:52.352Z,24160
2017-08-04T08:14:52.070Z,28224
2017-08-04T08:15:52.037Z,33280
2017-08-04T08:16:52.022Z,41024
2017-08-04T08:17:52.015Z,27488
2017-08-04T08:18:51.991Z,27232
2017-08-04T08:19:51.975Z,31456
2017-08-04T08:20:51.514Z,33120
2017-08-04T08:21:51.948Z,28896
2017-08-04T08:22:51.641Z,28672
2017-08-04T08:23:51.634Z,32544
2017-08-04T08:24:51.611Z,31392
2017-08-04T08:25:51.597Z,39264
2017-08-04T08:26:51.591Z,34016
2017-08-04T08:27:51.867Z,46688
2017-08-04T08:28:51.853Z,32224
2017-08-04T08:29:51.544Z,28480
2017-08-04T08:30:51.852Z,26912
2017-08-04T08:31:51.520Z,27680
2017-08-04T08:32:51.804Z,32512
2017-08-04T08:33:51.779Z,40224
2017-08-04T08:34:51.476Z,33856
2017-08-04T08:35:51.754Z,34976
2017-08-04T08:36:51.171Z,63680
2017-08-04T08:37:51.432Z,35552
2017-08-04T08:38:51.442Z,29088
2017-08-04T08:39:51.410Z,32224
2017-08-04T08:40:51.692Z,30720
2017-08-04T08:41:51.380Z,37152
2017-08-04T08:42:51.665Z,80128
2017-08-04T08:43:51.656Z,40416
2017-08-04T08:44:51.637Z,55744
2017-08-04T08:45:51.626Z,37056
2017-08-04T08:46:51.615Z,38592
2017-08-04T08:47:51.308Z,36800
2017-08-04T08:48:51.616Z,36224
2017-08-04T08:49:51.588Z,35104
2017-08-04T08:50:51.562Z,31488
2017-08-04T08:51:51.561Z,29152
2017-08-04T08:52:51.546Z,32032
2017-08-04T08:53:51.526Z,36384
2017-08-04T08:54:51.518Z,35872
2017-08-04T08:55:51.509Z,35072
2017-08-04T08:56:51.203Z,33344
2017-08-04T08:57:51.729Z,33760
2017-08-04T08:58:52.629Z,36640
2017-08-04T08:59:51.682Z,44512
2017-08-04T09:00:51.144Z,36384
2017-08-04T09:01:51.144Z,36160
2017-08-04T09:02:51.421Z,32128
2017-08-04T09:03:51.413Z,25664
2017-08-04T09:04:51.393Z,28064
2017-08-04T09:05:51.389Z,32672
2017-08-04T09:06:51.380Z,31712
2017-08-04T09:07:51.360Z,34624
2017-08-04T09:08:51.343Z,46176
2017-08-04T09:09:51.332Z,42976
2017-08-04T09:10:51.423Z,35552
2017-08-04T09:11:50.714Z,34432
2017-08-04T09:12:51.288Z,34496
2017-08-04T09:13:51.058Z,33664
2017-08-04T09:14:50.903Z,34336
2017-08-04T09:15:51.259Z,38304
2017-08-04T09:16:51.244Z,41184
2017-08-04T09:17:51.236Z,29632
2017-08-04T09:18:51.218Z,33792
2017-08-04T09:19:50.915Z,36192
2017-08-04T09:20:50.897Z,36096
2017-08-04T09:21:51.183Z,40128
2017-08-04T09:22:51.170Z,41632
2017-08-04T09:23:51.157Z,33152
2017-08-04T09:24:51.147Z,42176
2017-08-04T09:25:50.838Z,42880
2017-08-04T09:26:52.170Z,39008
2017-08-04T09:27:50.938Z,32352
2017-08-04T09:28:51.107Z,73888
2017-08-04T09:29:51.088Z,57056
2017-08-04T09:30:50.776Z,29504
2017-08-04T09:31:51.070Z,21600
2017-08-04T09:32:51.053Z,20000
2017-08-04T09:33:50.741Z,22208
2017-08-04T09:34:50.731Z,22304
2017-08-04T09:35:50.717Z,17504
2017-08-04T09:36:51.000Z,17760
2017-08-04T09:37:50.985Z,58464
2017-08-04T09:38:51.424Z,31456
2017-08-04T09:39:51.547Z,28096
2017-08-04T09:40:50.950Z,26560
2017-08-04T09:41:50.935Z,31584
2017-08-04T09:42:50.922Z,44704
2017-08-04T09:43:50.918Z,41280
2017-08-04T09:44:50.893Z,41664
2017-08-04T09:45:50.885Z,50912
2017-08-04T09:46:50.921Z,44320
2017-08-04T09:47:50.563Z,43232
2017-08-04T09:48:50.547Z,41856
2017-08-04T09:49:50.539Z,42240
2017-08-04T09:50:50.820Z,44544
2017-08-04T09:51:50.817Z,40512
2017-08-04T09:52:50.796Z,38496
2017-08-04T09:53:50.779Z,36640
2017-08-04T09:54:50.773Z,35328
2017-08-04T09:55:50.760Z,33984
2017-08-04T09:56:50.746Z,31328
2017-08-04T09:57:50.729Z,30496
2017-08-04T09:58:50.718Z,29920
2017-08-04T09:59:50.706Z,30464
2017-08-04T10:00:50.538Z,32608
2017-08-04T10:01:50.693Z,34848
2017-08-04T10:02:50.670Z,35360
2017-08-04T10:03:50.659Z,33600
2017-08-04T10:04:50.646Z,33376
2017-08-04T10:05:50.340Z,32704
2017-08-04T10:06:50.622Z,31808
2017-08-04T10:07:50.614Z,32192
2017-08-04T10:08:50.651Z,34304
2017-08-04T10:09:49.697Z,34976
2017-08-04T10:10:51.137Z,38272
2017-08-04T10:11:51.227Z,40512
2017-08-04T10:12:50.261Z,36608
2017-08-04T10:13:50.236Z,37760
2017-08-04T10:14:50.650Z,38912
2017-08-04T10:15:50.881Z,39840
2017-08-04T10:16:50.502Z,28896
2017-08-04T10:17:49.897Z,21888
2017-08-04T10:18:50.498Z,23776
2017-08-04T10:19:50.517Z,28224
2017-08-04T10:20:50.297Z,29984
2017-08-04T10:21:50.440Z,29344
2017-08-04T10:22:50.429Z,30336
2017-08-04T10:23:50.420Z,31840
2017-08-04T10:24:50.400Z,31904
2017-08-04T10:25:50.382Z,30368
2017-08-04T10:26:50.501Z,30848
2017-08-04T10:27:50.064Z,30688
2017-08-04T10:28:50.354Z,30912
2017-08-04T10:29:50.458Z,32704
2017-08-04T10:30:50.029Z,32832
2017-08-04T10:31:50.014Z,32800
2017-08-04T10:32:50.297Z,33120
2017-08-04T10:33:49.994Z,33280
2017-08-04T10:34:50.469Z,32640
2017-08-04T10:35:50.261Z,32096
2017-08-04T10:36:50.248Z,33536
2017-08-04T10:37:50.238Z,34336
2017-08-04T10:38:50.230Z,34592
2017-08-04T10:39:50.221Z,34048
2017-08-04T10:40:50.219Z,35008
2017-08-04T10:41:50.194Z,35744
2017-08-04T10:42:50.171Z,37632
2017-08-04T10:43:50.167Z,39104
2017-08-04T10:44:50.154Z,39072
2017-08-04T10:45:49.840Z,37216
2017-08-04T10:46:50.123Z,35808
2017-08-04T10:47:50.108Z,36416
2017-08-04T10:48:49.858Z,36960
2017-08-04T10:49:50.090Z,38016
2017-08-04T10:50:50.089Z,35808
2017-08-04T10:51:50.068Z,33664
2017-08-04T10:52:50.065Z,35744
2017-08-04T10:53:49.747Z,38272
2017-08-04T10:54:50.030Z,39040
2017-08-04T10:55:50.018Z,38112
2017-08-04T10:56:49.709Z,35808
2017-08-04T10:57:49.699Z,35232
2017-08-04T10:58:49.979Z,37888
2017-08-04T10:59:49.980Z,39616
2017-08-04T11:00:49.658Z,38208
2017-08-04T11:01:49.659Z,39936
2017-08-04T11:02:49.646Z,40960
2017-08-04T11:03:49.627Z,37056
2017-08-04T11:04:49.619Z,31872
2017-08-04T11:05:49.904Z,27168
2017-08-04T11:06:49.588Z,25248
2017-08-04T11:07:49.578Z,25472
2017-08-04T11:08:49.566Z,25376
2017-08-04T11:09:49.554Z,29216
2017-08-04T11:10:49.541Z,36704
2017-08-04T11:11:49.826Z,34176
2017-08-04T11:12:49.811Z,35040
2017-08-04T11:13:49.796Z,37664
2017-08-04T11:14:49.792Z,37184
2017-08-04T11:15:49.776Z,38976
2017-08-04T11:16:49.465Z,36864
2017-08-04T11:17:49.754Z,34880
2017-08-04T11:18:49.739Z,36736
2017-08-04T11:19:49.732Z,37888
2017-08-04T11:20:49.421Z,37344
2017-08-04T11:21:49.408Z,34560
2017-08-04T11:22:49.391Z,35296
2017-08-04T11:23:49.380Z,30656
2017-08-04T11:24:49.669Z,26304
2017-08-04T11:25:49.656Z,36832
2017-08-04T11:26:49.646Z,24320
2017-08-04T11:27:49.636Z,25632
2017-08-04T11:28:49.620Z,29536
2017-08-04T11:29:49.604Z,33920
2017-08-04T11:30:49.296Z,35008
2017-08-04T11:31:49.577Z,27424
2017-08-04T11:32:49.565Z,32704
2017-08-04T11:33:48.984Z,46336
2017-08-04T11:34:49.543Z,39936
2017-08-04T11:35:49.531Z,35488
2017-08-04T11:36:49.216Z,31936
2017-08-04T11:37:49.206Z,31808
2017-08-04T11:38:49.495Z,35424
2017-08-04T11:39:49.480Z,40896
2017-08-04T11:40:49.468Z,35616
2017-08-04T11:41:49.462Z,35680
2017-08-04T11:42:49.444Z,33216
2017-08-04T11:43:49.135Z,28576
2017-08-04T11:44:49.423Z,28128
2017-08-04T11:45:49.413Z,30496
2017-08-04T11:46:49.398Z,30176
2017-08-04T11:47:49.383Z,33760
2017-08-04T11:48:49.374Z,35840
2017-08-04T11:49:49.380Z,53536
2017-08-04T11:50:49.353Z,31744
2017-08-04T11:51:49.041Z,30112
2017-08-04T11:52:49.321Z,26784
2017-08-04T11:53:49.311Z,25536
2017-08-04T11:54:49.300Z,26080
2017-08-04T11:55:49.000Z,24736
2017-08-04T11:56:49.278Z,24192
2017-08-04T11:57:49.263Z,29536
2017-08-04T11:58:49.259Z,33888
2017-08-04T11:59:49.245Z,94080
2017-08-04T12:00:48.943Z,42208
2017-08-04T12:01:49.219Z,107424
2017-08-04T12:02:48.906Z,45184
2017-08-04T12:03:49.190Z,44896
2017-08-04T12:04:49.176Z,43456
2017-08-04T12:05:49.166Z,45248
2017-08-04T12:06:49.161Z,87072
2017-08-04T12:07:49.145Z,46144
2017-08-04T12:08:48.543Z,111680
2017-08-04T12:09:49.124Z,117280
2017-08-04T12:10:48.818Z,48416
2017-08-04T12:11:49.530Z,52352
2017-08-04T12:12:49.103Z,74304
2017-08-04T12:13:48.787Z,36544
2017-08-04T12:14:48.773Z,29696
2017-08-04T12:15:48.761Z,61408
2017-08-04T12:16:48.466Z,30176
2017-08-04T12:17:49.358Z,26432
2017-08-04T12:18:49.253Z,28512
2017-08-04T12:19:49.023Z,25312
2017-08-04T12:20:48.717Z,23904
2017-08-04T12:21:48.703Z,94464
2017-08-04T12:22:48.990Z,33152
2017-08-04T12:23:48.379Z,27648
2017-08-04T12:24:48.671Z,33600
2017-08-04T12:25:48.957Z,34432
2017-08-04T12:26:48.658Z,33504
2017-08-04T12:27:48.694Z,32768
2017-08-04T12:28:48.638Z,33440
2017-08-04T12:29:48.627Z,35040
2017-08-04T12:30:48.907Z,39232
2017-08-04T12:31:48.892Z,48544
2017-08-04T12:32:48.875Z,106080
2017-08-04T12:33:48.864Z,38272
2017-08-04T12:34:48.858Z,38208
2017-08-04T12:35:48.548Z,40032
2017-08-04T12:36:48.837Z,36256
2017-08-04T12:37:48.529Z,47424
2017-08-04T12:38:48.519Z,29152
2017-08-04T12:39:48.804Z,26240
2017-08-04T12:40:48.492Z,20640
2017-08-04T12:41:48.784Z,17824
2017-08-04T12:42:48.865Z,16152
2017-08-04T12:43:48.455Z,14308
2017-08-04T12:44:48.751Z,13328
2017-08-04T12:45:48.768Z,13016
2017-08-04T12:46:48.722Z,12584
2017-08-04T12:47:48.711Z,11696
2017-08-04T12:48:48.705Z,11840
2017-08-04T12:49:48.684Z,14696
2017-08-04T12:50:48.672Z,35744
2017-08-04T12:51:48.661Z,37632
2017-08-04T12:52:48.649Z,57568
2017-08-04T12:53:48.656Z,40896
2017-08-04T12:54:48.622Z,33376
2017-08-04T12:55:48.611Z,105376
2017-08-04T12:56:48.630Z,36608
2017-08-04T12:57:48.648Z,47136
2017-08-04T12:58:48.579Z,40832
2017-08-04T12:59:48.555Z,105824
2017-08-04T13:00:48.545Z,110496
2017-08-04T13:01:48.238Z,106336
2017-08-04T13:02:48.532Z,46016
2017-08-04T13:03:48.513Z,88768
2017-08-04T13:04:48.500Z,70336
2017-08-04T13:05:48.496Z,37824
2017-08-04T13:06:48.342Z,24096
2017-08-04T13:07:48.469Z,20640
2017-08-04T13:08:48.460Z,20800
2017-08-04T13:09:48.445Z,72768
2017-08-04T13:10:48.446Z,23936
2017-08-04T13:11:48.429Z,58240
2017-08-04T13:12:48.125Z,27872
2017-08-04T13:13:48.408Z,60672
2017-08-04T13:14:48.397Z,32608
2017-08-04T13:15:48.414Z,47264
2017-08-04T13:16:48.392Z,33536
2017-08-04T13:17:48.373Z,31584
2017-08-04T13:18:48.361Z,28640
2017-08-04T13:19:48.348Z,24704
2017-08-04T13:20:48.335Z,23008
2017-08-04T13:21:48.325Z,20512
2017-08-04T13:22:48.317Z,26784
2017-08-04T13:23:50.186Z,22816
2017-08-04T13:24:48.001Z,22688
2017-08-04T13:25:47.997Z,20576
2017-08-04T13:26:48.270Z,19424